Time;durP1;ratioP1;P1;durP2;ratioP2;P2;SDS_P1;SDS_P2;PMS_P1;PMS_P2;Temp;Humidity;BMP_temperature;BMP_pressure;BME280_temperature;BME280_humidity;BME280_pressure;Samples;Min_cycle;Max_cycle;Signal;HPM_P1;HPM_P2
2023/04/05 00:02:28;;;;;;;0.40;0.40;;;;;;;6.64;49.93;101798.09;5144521;28;20532;-89
2023/04/05 00:04:59;;;;;;;0.38;0.38;;;;;;;6.59;49.68;101792.84;5159587;28;20048;-88
2023/04/05 00:07:32;;;;;;;0.40;0.40;;;;;;;6.63;49.46;101793.75;5154165;28;20109;-89
2023/04/05 00:10:03;;;;;;;0.35;0.35;;;;;;;6.58;49.81;101788.50;5150193;28;20528;-87
2023/04/05 00:12:34;;;;;;;0.50;0.50;;;;;;;6.43;50.18;101791.00;5139601;28;20142;-89
2023/04/05 00:15:05;;;;;;;0.73;0.73;;;;;;;6.49;49.84;101792.78;5136928;28;20133;-90
2023/04/05 00:17:35;;;;;;;0.30;0.30;;;;;;;6.45;50.02;101794.50;5154769;28;20044;-88
2023/04/05 00:20:07;;;;;;;0.40;0.40;;;;;;;6.38;50.04;101787.50;5167223;28;20046;-88
2023/04/05 00:22:37;;;;;;;0.40;0.40;;;;;;;6.44;49.84;101788.44;5142570;28;20034;-88
2023/04/05 00:25:08;;;;;;;0.68;0.68;;;;;;;6.35;50.86;101779.66;5152962;28;20121;-89
2023/04/05 00:27:42;;;;;;;0.98;0.98;;;;;;;6.27;51.06;101775.25;5159475;28;20125;-89
2023/04/05 00:30:19;;;;;;;2.65;1.30;;;;;;;6.31;49.68;101773.53;5127416;28;20046;-89
2023/04/05 00:32:50;;;;;;;1.33;1.33;;;;;;;6.37;49.56;101772.72;5136702;28;20037;-88
2023/04/05 00:35:20;;;;;;;0.40;0.40;;;;;;;6.30;49.54;101770.06;5132274;28;20037;-89
2023/04/05 00:37:51;;;;;;;0.60;0.60;;;;;;;6.28;48.94;101777.00;5134851;28;20034;-89
2023/04/05 00:40:22;;;;;;;0.80;0.80;;;;;;;6.25;48.99;101778.72;5166567;28;20046;-92
2023/04/05 00:42:52;;;;;;;0.90;0.90;;;;;;;6.27;49.38;101785.69;5136702;28;20129;-88
2023/04/05 00:45:23;;;;;;;0.30;0.30;;;;;;;6.21;48.91;101782.13;5146816;28;20535;-89
2023/04/05 00:47:54;;;;;;;0.30;0.30;;;;;;;6.04;49.93;101784.63;5136159;28;20113;-88
2023/04/05 00:50:29;;;;;;;0.70;0.70;;;;;;;6.06;50.07;101775.09;5151646;28;20274;-89
2023/04/05 00:53:00;;;;;;;0.40;0.40;;;;;;;6.06;49.60;101769.88;5157457;28;20085;-89
2023/04/05 00:55:32;;;;;;;0.50;0.50;;;;;;;5.98;49.38;101768.06;5145087;28;20038;-91
2023/04/05 00:58:03;;;;;;;0.60;0.60;;;;;;;5.97;49.45;101768.91;5155877;28;20057;-91
2023/04/05 01:00:37;;;;;;;0.50;0.50;;;;;;;5.93;49.26;101764.50;5191183;28;20023;-91
2023/04/05 01:03:09;;;;;;;0.60;0.60;;;;;;;5.92;50.11;101764.50;5156486;28;20030;-92
2023/04/05 01:05:45;;;;;;;0.50;0.50;;;;;;;5.93;49.65;101764.50;5173559;28;20094;-92
2023/04/05 01:08:33;;;;;;;0.40;0.40;;;;;;;5.88;49.84;101761.00;5162362;28;20448;-88
2023/04/05 01:11:05;;;;;;;0.88;0.88;;;;;;;5.88;49.61;101757.50;5150519;28;20054;-89
2023/04/05 01:13:36;;;;;;;1.13;1.08;;;;;;;5.80;50.30;101750.50;5148329;28;20626;-90
2023/04/05 01:16:06;;;;;;;0.20;0.20;;;;;;;5.74;49.86;101754.81;5149803;28;20050;-89
2023/04/05 01:18:37;;;;;;;2.58;2.33;;;;;;;5.74;50.09;101758.25;5167058;28;20125;-89
2023/04/05 01:21:38;;;;;;;0.40;0.40;;;;;;;5.69;50.13;101752.16;5134135;28;20457;-88
2023/04/05 01:24:45;;;;;;;0.50;0.50;;;;;;;5.61;49.34;101762.47;5149612;28;20053;-89
2023/04/05 01:27:20;;;;;;;0.35;0.35;;;;;;;5.52;50.06;101762.38;5158105;28;20026;-89
2023/04/05 01:30:14;;;;;;;0.28;0.28;;;;;;;5.54;50.31;101755.47;5150290;28;20030;-89
2023/04/05 01:33:25;;;;;;;0.50;0.50;;;;;;;5.58;50.71;101757.22;5144733;28;20041;-88
2023/04/05 01:36:03;;;;;;;0.75;0.75;;;;;;;5.59;49.95;101752.91;5167085;28;20300;-88
2023/04/05 01:38:38;;;;;;;0.80;0.80;;;;;;;5.55;49.81;101745.91;5149079;28;20058;-89
2023/04/05 01:41:09;;;;;;;0.40;0.40;;;;;;;5.54;49.99;101746.78;5160625;28;20037;-87
2023/04/05 01:43:39;;;;;;;0.47;0.47;;;;;;;5.53;49.95;101748.50;5166096;28;20107;-88
2023/04/05 01:46:10;;;;;;;0.35;0.35;;;;;;;5.50;50.23;101748.47;5160285;28;20065;-91
2023/04/05 01:48:40;;;;;;;0.40;0.40;;;;;;;5.50;50.55;101749.34;5177772;28;20106;-90
2023/04/05 01:51:11;;;;;;;1.65;1.42;;;;;;;5.47;51.19;101744.09;5153031;28;20322;-88
2023/04/05 01:53:41;;;;;;;0.30;0.30;;;;;;;5.45;50.06;101734.53;5149665;28;20042;-88
2023/04/05 01:56:12;;;;;;;0.50;0.50;;;;;;;5.46;51.50;101731.94;5133360;28;20031;-90
2023/04/05 01:58:42;;;;;;;0.32;0.32;;;;;;;5.44;51.49;101738.00;5131322;28;20129;-89
2023/04/05 02:01:13;;;;;;;0.70;0.70;;;;;;;5.46;52.21;101733.69;5149515;28;20508;-88
2023/04/05 02:03:43;;;;;;;0.85;0.85;;;;;;;5.41;51.67;101732.78;5163595;28;20092;-89
2023/04/05 02:06:14;;;;;;;1.00;0.98;;;;;;;5.40;51.89;101733.63;5149969;28;20034;-87
2023/04/05 02:08:44;;;;;;;0.65;0.65;;;;;;;5.47;51.36;101738.91;5149124;28;20083;-88
2023/04/05 02:11:15;;;;;;;0.65;0.65;;;;;;;5.49;50.94;101736.34;5133106;28;20125;-88
2023/04/05 02:13:45;;;;;;;3.72;1.48;;;;;;;5.46;51.17;101736.28;5162715;28;20552;-88
2023/04/05 02:16:17;;;;;;;0.47;0.47;;;;;;;5.42;50.89;101731.88;5130592;28;20092;-90
2023/04/05 02:18:49;;;;;;;0.57;0.57;;;;;;;5.33;50.93;101725.72;5132661;28;20529;-88
2023/04/05 02:21:20;;;;;;;0.70;0.70;;;;;;;5.35;51.00;101724.03;5179249;28;20039;-88
2023/04/05 02:23:52;;;;;;;0.68;0.68;;;;;;;5.27;51.19;101724.81;5148335;28;20026;-89
2023/04/05 02:26:22;;;;;;;0.90;0.90;;;;;;;5.26;51.10;101729.13;5149509;28;20114;-89
2023/04/05 02:28:53;;;;;;;1.13;1.13;;;;;;;5.27;50.69;101725.66;5164462;28;20045;-89
2023/04/05 02:31:23;;;;;;;1.45;0.50;;;;;;;5.27;51.31;101725.66;5131572;28;20611;-88
2023/04/05 02:33:54;;;;;;;0.63;0.63;;;;;;;5.25;51.32;101727.38;5134087;28;20022;-88
2023/04/05 02:36:27;;;;;;;0.70;0.70;;;;;;;5.22;52.03;101722.16;5168049;28;20034;-89
2023/04/05 02:38:57;;;;;;;2.47;1.25;;;;;;;5.22;51.27;101734.28;5153536;28;20148;-88
2023/04/05 02:41:27;;;;;;;0.45;0.45;;;;;;;5.19;50.93;101727.31;5166592;28;20038;-87
2023/04/05 02:43:58;;;;;;;0.65;0.65;;;;;;;5.13;51.69;101722.91;5149683;28;20041;-89
2023/04/05 02:46:29;;;;;;;0.80;0.80;;;;;;;5.12;51.63;101722.91;5134370;28;20026;-88
2023/04/05 02:48:59;;;;;;;0.75;0.75;;;;;;;5.10;51.81;101727.22;5147118;28;20030;-88
2023/04/05 02:51:33;;;;;;;0.40;0.40;;;;;;;5.12;51.60;101728.09;5148911;28;20030;-88
2023/04/05 02:54:03;;;;;;;0.30;0.30;;;;;;;5.07;51.26;101722.84;5147055;28;20042;-88
2023/04/05 02:56:34;;;;;;;0.57;0.57;;;;;;;5.07;52.04;101722.00;5164338;28;20061;-87
2023/04/05 02:59:04;;;;;;;0.47;0.47;;;;;;;5.06;51.84;101720.22;5168591;28;20026;-88
2023/04/05 03:01:42;;;;;;;1.35;1.27;;;;;;;5.07;51.50;101716.78;5153586;28;20088;-88
2023/04/05 03:04:13;;;;;;;0.75;0.75;;;;;;;4.98;52.71;101715.81;5149000;28;20121;-90
2023/04/05 03:06:47;;;;;;;0.93;0.93;;;;;;;5.00;51.15;101721.03;5135522;28;20117;-90
2023/04/05 03:09:17;;;;;;;0.30;0.30;;;;;;;5.00;52.61;101719.28;5164521;28;20035;-88
2023/04/05 03:11:48;;;;;;;1.05;1.05;;;;;;;4.96;52.63;101724.47;5169148;28;20037;-88
2023/04/05 03:14:18;;;;;;;0.35;0.35;;;;;;;5.00;51.95;101716.69;5163553;28;20494;-88
2023/04/05 03:16:49;;;;;;;0.30;0.30;;;;;;;4.98;51.86;101725.34;5148613;28;20491;-89
2023/04/05 03:19:21;;;;;;;0.30;0.30;;;;;;;4.93;52.66;101725.28;5147927;28;20065;-89
2023/04/05 03:21:52;;;;;;;0.40;0.40;;;;;;;4.93;52.13;101720.06;5151250;28;20030;-89
2023/04/05 03:24:23;;;;;;;0.82;0.82;;;;;;;4.87;52.43;101714.81;5168453;28;20034;-88
2023/04/05 03:26:53;;;;;;;1.25;1.25;;;;;;;4.83;51.90;101718.22;5150117;28;20041;-90
2023/04/05 03:29:24;;;;;;;0.30;0.30;;;;;;;4.84;52.45;101704.34;5150319;28;20397;-88
2023/04/05 03:31:54;;;;;;;0.82;0.82;;;;;;;4.81;52.03;101710.38;5166807;28;20026;-88
2023/04/05 03:34:27;;;;;;;3.50;1.88;;;;;;;4.78;52.93;101702.56;5163304;28;20089;-90
2023/04/05 03:36:58;;;;;;;2.08;1.77;;;;;;;4.82;52.39;101708.69;5151159;28;20037;-90
2023/04/05 03:39:28;;;;;;;0.30;0.30;;;;;;;4.83;52.38;101708.69;5152856;28;20573;-89
2023/04/05 03:42:00;;;;;;;0.55;0.55;;;;;;;4.80;52.98;101700.84;5148922;28;20128;-89
2023/04/05 03:44:30;;;;;;;0.38;0.38;;;;;;;4.75;52.57;101702.53;5166764;28;20121;-89
2023/04/05 03:47:01;;;;;;;3.03;2.67;;;;;;;4.79;52.67;101701.72;5153991;28;20399;-88
2023/04/05 03:49:31;;;;;;;0.40;0.40;;;;;;;4.75;51.90;101704.25;5168336;28;20085;-90
2023/04/05 03:52:02;;;;;;;1.02;1.00;;;;;;;4.73;52.53;101697.31;5187986;28;20511;-90
2023/04/05 03:54:32;;;;;;;0.65;0.65;;;;;;;4.69;52.70;101698.09;5161993;28;20408;-90
2023/04/05 03:57:03;;;;;;;21.95;2.47;;;;;;;4.61;52.99;101697.13;5153595;28;20112;-89
2023/04/05 03:59:33;;;;;;;1.52;1.42;;;;;;;4.62;53.94;101693.69;5183157;28;20160;-90
2023/04/05 04:02:04;;;;;;;0.40;0.40;;;;;;;4.65;52.95;101698.94;5175468;28;20022;-88
2023/04/05 04:04:34;;;;;;;0.73;0.73;;;;;;;4.65;52.45;101704.13;5144689;28;20049;-89
2023/04/05 04:07:05;;;;;;;0.47;0.47;;;;;;;4.58;53.27;101702.31;5149683;28;20023;-90
2023/04/05 04:09:35;;;;;;;0.30;0.30;;;;;;;4.58;53.54;101699.72;5148091;28;20463;-90
2023/04/05 04:12:06;;;;;;;1.90;1.10;;;;;;;4.55;52.97;101697.91;5190388;28;20026;-91
2023/04/05 04:14:36;;;;;;;0.40;0.40;;;;;;;4.56;53.04;101702.28;5173705;28;20065;-91
2023/04/05 04:17:07;;;;;;;1.33;1.33;;;;;;;4.49;53.67;101696.97;5154469;28;20038;-90
2023/04/05 04:19:37;;;;;;;0.65;0.65;;;;;;;4.48;53.68;101700.44;5154184;28;20382;-88
2023/04/05 04:22:09;;;;;;;0.30;0.30;;;;;;;4.49;53.02;101699.59;5155934;28;20072;-88
2023/04/05 04:24:39;;;;;;;1.13;0.98;;;;;;;4.46;52.54;101697.81;5136789;28;20046;-86
2023/04/05 04:27:10;;;;;;;0.75;0.75;;;;;;;4.43;53.38;101700.38;5138819;28;20029;-89
2023/04/05 04:29:45;;;;;;;1.17;1.10;;;;;;;4.43;52.65;101692.56;5154665;28;20038;-89
2023/04/05 04:32:25;;;;;;;0.88;0.88;;;;;;;4.39;53.99;101696.84;5170621;28;20042;-88
2023/04/05 04:34:57;;;;;;;0.43;0.43;;;;;;;4.36;52.81;101695.94;5166109;28;20033;-87
2023/04/05 04:37:29;;;;;;;0.90;0.90;;;;;;;4.31;53.28;101692.38;5149284;28;20113;-89
2023/04/05 04:40:04;;;;;;;0.40;0.40;;;;;;;4.27;53.53;101696.66;5138366;28;20030;-88
2023/04/05 04:42:37;;;;;;;0.50;0.50;;;;;;;4.22;53.85;101696.59;5169109;28;20089;-88
2023/04/05 04:45:09;;;;;;;0.30;0.30;;;;;;;4.25;53.78;101694.06;5150484;28;20049;-89
2023/04/05 04:47:41;;;;;;;0.38;0.38;;;;;;;4.22;53.94;101695.72;5157846;28;20037;-90
2023/04/05 04:50:12;;;;;;;0.85;0.85;;;;;;;4.23;53.11;101693.16;5187280;28;20034;-90
2023/04/05 04:52:43;;;;;;;0.98;0.98;;;;;;;4.20;53.77;101697.44;5191411;28;20053;-91
2023/04/05 04:55:13;;;;;;;0.38;0.38;;;;;;;4.17;53.53;101700.84;5189968;28;20219;-88
2023/04/05 04:57:44;;;;;;;0.57;0.57;;;;;;;4.14;54.20;101700.78;5177084;28;20064;-89
2023/04/05 05:00:15;;;;;;;0.60;0.60;;;;;;;4.09;54.47;101692.94;5156957;28;20042;-89
2023/04/05 05:02:46;;;;;;;0.57;0.57;;;;;;;4.12;53.74;101697.31;5134273;28;20027;-88
2023/04/05 05:05:17;;;;;;;1.45;1.40;;;;;;;4.09;53.81;101698.13;5160135;28;20049;-88
2023/04/05 05:07:48;;;;;;;0.30;0.30;;;;;;;4.09;53.36;101698.13;5164468;28;20081;-88
2023/04/05 05:10:19;;;;;;;3.47;1.80;;;;;;;4.05;54.49;101700.69;5132603;28;20056;-88
2023/04/05 05:12:50;;;;;;;0.30;0.30;;;;;;;4.02;53.03;101696.28;5145709;28;20045;-88
2023/04/05 05:15:21;;;;;;;1.08;1.08;;;;;;;3.99;55.00;101690.19;5129265;28;20046;-87
2023/04/05 05:17:52;;;;;;;0.65;0.65;;;;;;;3.97;55.03;101695.34;5169256;28;20111;-89
2023/04/05 05:20:27;;;;;;;0.30;0.30;;;;;;;3.96;54.09;101693.59;5146342;28;20069;-89
2023/04/05 05:23:00;;;;;;;2.53;1.65;;;;;;;3.91;54.91;101690.94;5123782;28;20029;-89
2023/04/05 05:25:30;;;;;;;0.63;0.63;;;;;;;3.92;54.39;101694.41;5134018;28;20044;-89
2023/04/05 05:28:01;;;;;;;2.25;1.67;;;;;;;3.87;55.12;101698.66;5145640;28;20534;-88
2023/04/05 05:30:32;;;;;;;1.15;1.15;;;;;;;3.85;55.52;101698.63;5172117;28;20112;-89
2023/04/05 05:33:03;;;;;;;1.00;1.00;;;;;;;3.90;54.87;101706.50;5164015;28;20427;-88
2023/04/05 05:35:33;;;;;;;0.32;0.32;;;;;;;3.92;54.28;101699.63;5146169;28;20099;-84
2023/04/05 05:38:03;;;;;;;0.95;0.95;;;;;;;3.77;54.67;101695.88;5149780;28;20042;-85
2023/04/05 05:40:34;;;;;;;0.77;0.77;;;;;;;3.78;54.40;101697.66;5156197;28;20322;-85
2023/04/05 05:43:04;;;;;;;0.32;0.32;;;;;;;3.83;54.02;101691.66;5163917;28;20034;-85
2023/04/05 05:45:35;;;;;;;0.70;0.70;;;;;;;3.81;54.40;101694.22;5170452;28;20081;-86
2023/04/05 05:48:06;;;;;;;0.55;0.55;;;;;;;3.79;54.08;101688.16;5154886;28;20030;-88
2023/04/05 05:50:38;;;;;;;2.15;2.05;;;;;;;3.76;54.53;101694.13;5151767;28;20509;-85
2023/04/05 05:53:08;;;;;;;2.67;1.48;;;;;;;3.75;53.72;101692.41;5162354;28;20053;-87
2023/04/05 05:55:38;;;;;;;0.90;0.90;;;;;;;3.71;54.93;101689.75;5135415;28;20576;-85
2023/04/05 05:58:09;;;;;;;1.85;1.70;;;;;;;3.75;54.00;101686.34;5153411;28;20046;-87
2023/04/05 06:00:39;;;;;;;1.85;1.75;;;;;;;3.74;54.51;101690.66;5172887;28;20529;-85
2023/04/05 06:03:10;;;;;;;1.70;1.40;;;;;;;3.69;56.01;101699.22;5181252;28;20042;-86
2023/04/05 06:05:50;;;;;;;0.50;0.50;;;;;;;3.71;55.06;101695.78;5136327;28;20392;-87
2023/04/05 06:08:21;;;;;;;0.95;0.95;;;;;;;3.71;54.87;101695.78;5168845;28;20049;-86
2023/04/05 06:10:52;;;;;;;0.93;0.93;;;;;;;3.71;54.86;101694.94;5163366;28;20050;-86
2023/04/05 06:13:22;;;;;;;0.40;0.40;;;;;;;3.67;54.70;101701.81;5133029;28;20260;-88
2023/04/05 06:15:53;;;;;;;0.80;0.80;;;;;;;3.66;55.79;101707.84;5163031;28;20043;-88
2023/04/05 06:18:23;;;;;;;1.67;1.58;;;;;;;3.66;56.10;101700.03;5149887;28;20038;-85
2023/04/05 06:20:54;;;;;;;1.02;0.95;;;;;;;3.67;56.40;101699.19;5134289;28;20046;-86
2023/04/05 06:23:25;;;;;;;1.27;0.88;;;;;;;3.68;55.94;101695.72;5164982;28;20026;-85
2023/04/05 06:25:55;;;;;;;1.00;1.00;;;;;;;3.71;55.82;101705.31;5165573;28;20042;-86
2023/04/05 06:28:26;;;;;;;0.30;0.30;;;;;;;3.73;55.97;101698.41;5166494;28;20034;-85
2023/04/05 06:31:00;;;;;;;4.30;1.10;;;;;;;3.72;55.37;101702.75;5162968;28;20723;-86
2023/04/05 06:33:30;;;;;;;0.43;0.43;;;;;;;3.75;55.39;101699.31;5185570;28;20321;-86
2023/04/05 06:36:00;;;;;;;0.30;0.30;;;;;;;3.75;55.92;101697.63;5137393;28;20505;-86
2023/04/05 06:38:31;;;;;;;0.57;0.57;;;;;;;3.77;55.44;101700.22;5141640;28;20053;-85
2023/04/05 06:41:02;;;;;;;0.43;0.43;;;;;;;3.76;56.36;101701.94;5158529;28;20049;-87
2023/04/05 06:43:32;;;;;;;0.73;0.73;;;;;;;3.78;56.56;101701.97;5203894;28;20030;-86
2023/04/05 06:46:03;;;;;;;1.00;1.00;;;;;;;3.85;56.58;101702.94;5186681;28;20064;-88
2023/04/05 06:48:34;;;;;;;1.58;1.48;;;;;;;3.89;56.97;101699.56;5181196;28;20038;-86
2023/04/05 06:51:04;;;;;;;1.55;1.23;;;;;;;3.96;56.14;101695.34;5158301;28;20037;-85
2023/04/05 06:53:35;;;;;;;1.85;1.27;;;;;;;4.10;56.13;101699.88;5170799;28;20026;-84
2023/04/05 06:56:06;;;;;;;1.10;1.05;;;;;;;4.25;55.73;101698.38;5156223;28;20041;-85
2023/04/05 06:58:37;;;;;;;0.77;0.77;;;;;;;4.32;56.31;101705.41;5171784;28;20133;-85
2023/04/05 07:01:08;;;;;;;0.30;0.30;;;;;;;4.43;57.53;101702.06;5155080;28;20130;-85
2023/04/05 07:03:38;;;;;;;0.40;0.40;;;;;;;4.48;57.28;101695.22;5139160;28;20075;-85
2023/04/05 07:06:08;;;;;;;3.00;1.20;;;;;;;4.61;57.70;101697.13;5154347;28;20038;-85
2023/04/05 07:08:39;;;;;;;1.63;1.52;;;;;;;4.84;56.38;101686.16;5142806;28;20022;-86
2023/04/05 07:11:12;;;;;;;2.28;2.08;;;;;;;4.94;56.07;101690.63;5187743;28;20069;-86
2023/04/05 07:13:42;;;;;;;6.93;1.90;;;;;;;4.98;55.60;101689.81;5154849;28;20115;-87
2023/04/05 07:16:12;;;;;;;0.95;0.95;;;;;;;4.91;56.35;101682.78;5147234;28;20054;-86
2023/04/05 07:18:43;;;;;;;1.13;1.10;;;;;;;4.96;56.07;101686.31;5170965;28;20609;-88
2023/04/05 07:21:13;;;;;;;0.73;0.73;;;;;;;4.93;56.45;101681.06;5169733;28;20042;-86
2023/04/05 07:23:44;;;;;;;0.40;0.40;;;;;;;5.00;56.16;101679.41;5161422;28;20014;-90
2023/04/05 07:26:15;;;;;;;0.40;0.40;;;;;;;5.01;55.94;101678.56;5191592;28;20034;-90
2023/04/05 07:28:45;;;;;;;1.10;1.10;;;;;;;5.04;55.29;101687.28;5176775;28;20098;-87
2023/04/05 07:31:16;;;;;;;0.90;0.90;;;;;;;5.05;55.88;101680.31;5156526;28;20081;-86
2023/04/05 07:33:46;;;;;;;0.80;0.80;;;;;;;5.06;55.55;101689.03;5173288;28;20030;-87
2023/04/05 07:36:17;;;;;;;0.70;0.70;;;;;;;5.06;55.55;101689.03;5143555;28;20043;-87
2023/04/05 07:38:47;;;;;;;1.17;1.17;;;;;;;5.11;55.49;101682.13;5144574;28;20038;-88
2023/04/05 07:41:19;;;;;;;0.85;0.85;;;;;;;5.09;55.65;101686.44;5175640;28;20480;-86
2023/04/05 07:43:49;;;;;;;0.55;0.55;;;;;;;4.98;56.37;101686.31;5143600;28;20038;-86
2023/04/05 07:46:21;;;;;;;0.43;0.43;;;;;;;4.89;56.97;101687.97;5141908;28;20141;-85
2023/04/05 07:48:52;;;;;;;1.50;0.90;;;;;;;4.99;56.84;101683.75;5144452;28;20057;-87
2023/04/05 07:51:22;;;;;;;1.15;1.15;;;;;;;5.03;56.35;101685.53;5175045;28;20046;-88
2023/04/05 07:53:52;;;;;;;0.52;0.45;;;;;;;4.87;57.37;101688.78;5143455;28;20026;-88
2023/04/05 07:56:23;;;;;;;5.40;3.05;;;;;;;4.90;57.13;101691.44;5141997;28;20549;-87
2023/04/05 07:58:54;;;;;;;2.30;2.10;;;;;;;4.77;58.04;101698.22;5143964;28;20044;-85
2023/04/05 08:01:26;;;;;;;0.55;0.55;;;;;;;4.89;57.41;101692.28;5138717;28;20050;-88
2023/04/05 08:03:57;;;;;;;0.40;0.40;;;;;;;4.92;57.18;101689.72;5137623;28;20442;-87
2023/04/05 08:06:27;;;;;;;1.15;1.15;;;;;;;4.97;57.78;101695.88;5139824;28;20324;-85
2023/04/05 08:08:58;;;;;;;1.13;1.13;;;;;;;4.96;57.87;101701.91;5149053;28;20038;-85
2023/04/05 08:11:28;;;;;;;0.50;0.50;;;;;;;5.21;56.92;101699.59;5170411;28;20030;-85
2023/04/05 08:13:58;;;;;;;0.70;0.68;;;;;;;5.30;55.93;101699.69;5165249;28;20505;-87
2023/04/05 08:16:29;;;;;;;0.43;0.43;;;;;;;5.29;55.95;101704.91;5138183;28;20058;-90
2023/04/05 08:18:59;;;;;;;0.77;0.77;;;;;;;5.26;55.68;101703.09;5163666;28;20124;-90
2023/04/05 08:21:32;;;;;;;0.43;0.43;;;;;;;5.27;54.72;101704.00;5142845;28;20034;-88
2023/04/05 08:24:14;;;;;;;1.08;0.85;;;;;;;5.23;55.64;101697.88;5136307;28;20058;-91
2023/04/05 08:27:00;;;;;;;3.38;1.50;;;;;;;5.31;55.10;101691.03;5144046;28;20038;-89
2023/04/05 08:29:34;;;;;;;0.40;0.40;;;;;;;5.40;55.30;101697.19;5155119;28;20034;-91
2023/04/05 08:32:05;;;;;;;0.40;0.40;;;;;;;5.27;54.66;101694.44;5156653;28;20081;-90
2023/04/05 08:34:36;;;;;;;0.75;0.75;;;;;;;5.29;54.82;101692.75;5148685;28;20042;-89
2023/04/05 08:37:07;;;;;;;0.95;0.95;;;;;;;5.41;55.27;101692.00;5137980;28;20438;-88
2023/04/05 08:39:37;;;;;;;0.82;0.80;;;;;;;5.44;55.39;101689.44;5155942;28;20057;-87
2023/04/05 08:42:33;;;;;;;0.98;0.98;;;;;;;5.39;55.81;101692.84;5165053;28;20133;-86
2023/04/05 08:45:11;;;;;;;1.85;1.75;;;;;;;5.41;56.14;101686.78;5149692;28;20064;-88
2023/04/05 08:47:42;;;;;;;3.25;1.35;;;;;;;5.34;55.79;101683.25;5146001;28;20026;-89
2023/04/05 08:57:00;;;;;;;;;;;;;;;5.53;55.38;101683.44;5102285;28;20496;-90
2023/04/05 08:59:42;;;;;;;1.00;1.00;;;;;;;5.56;55.45;101686.06;5183512;28;19944;-90
2023/04/05 09:05:52;;;;;;;0.63;0.63;;;;;;;5.68;53.33;101690.50;5162557;28;20045;-91
2023/04/05 09:08:31;;;;;;;0.30;0.30;;;;;;;5.69;54.02;101681.84;5167121;28;20030;-90
2023/04/05 09:11:05;;;;;;;0.70;0.70;;;;;;;5.84;53.50;101678.47;5094177;28;20038;-90
2023/04/05 09:13:46;;;;;;;2.85;1.33;;;;;;;5.74;53.55;101680.13;5146795;28;20022;-89
2023/04/05 09:17:03;;;;;;;0.50;0.50;;;;;;;5.81;53.79;101681.06;5105846;28;20038;-92
2023/04/05 09:19:34;;;;;;;2.20;2.03;;;;;;;5.83;54.31;101672.41;5118217;28;20098;-92
2023/04/05 09:22:09;;;;;;;2.88;2.63;;;;;;;5.89;53.88;101675.91;5154794;28;20539;-94
2023/04/05 09:24:46;;;;;;;0.73;0.57;;;;;;;6.05;55.24;101674.34;5118272;28;20042;-90
2023/04/05 09:27:19;;;;;;;2.90;1.42;;;;;;;6.08;54.70;101674.34;5130883;28;20133;-91
2023/04/05 09:29:50;;;;;;;0.50;0.50;;;;;;;6.18;53.85;101680.50;5143467;28;20038;-90
2023/04/05 09:32:24;;;;;;;1.13;1.08;;;;;;;6.23;54.07;101673.56;5159694;28;20041;-90
2023/04/05 09:35:02;;;;;;;2.00;1.30;;;;;;;6.24;53.82;101673.56;5125581;28;20125;-92
2023/04/05 09:37:52;;;;;;;1.60;1.50;;;;;;;6.38;53.55;101672.81;5136887;28;20026;-90
2023/04/05 09:40:23;;;;;;;0.70;0.70;;;;;;;6.28;53.30;101664.94;5141902;28;20097;-94
2023/04/05 09:42:53;;;;;;;0.93;0.93;;;;;;;6.40;53.76;101666.72;5156464;28;20068;-92
2023/04/05 09:45:26;;;;;;;2.00;1.88;;;;;;;6.50;54.02;101675.47;5135465;28;20626;-92
2023/04/05 09:47:57;;;;;;;1.05;1.05;;;;;;;6.52;53.56;101670.28;5137622;28;20030;-92
2023/04/05 09:50:28;;;;;;;32.72;2.40;;;;;;;6.57;52.50;101668.53;5136420;28;20042;-89
2023/04/05 09:58:03;;;;;;;;;;;;;;;;;;;;;
2023/04/05 10:10:44;;;;;;;2.05;1.95;;;;;;;7.12;51.46;101651.34;5177116;28;20100;-81
2023/04/05 10:13:18;;;;;;;3.15;1.48;;;;;;;7.15;51.99;101660.03;5182092;28;20041;-81
2023/04/05 10:15:49;;;;;;;0.43;0.43;;;;;;;7.24;50.69;101661.81;5159081;28;20053;-81
2023/04/05 10:18:27;;;;;;;1.38;1.30;;;;;;;7.16;50.30;101651.34;5161268;28;20488;-82
2023/04/05 10:21:00;;;;;;;3.50;1.92;;;;;;;7.21;49.67;101648.75;5162057;28;20062;-81
2023/04/05 10:23:33;;;;;;;0.80;0.80;;;;;;;7.22;49.49;101653.09;5175385;22;20037;-80
2023/04/05 10:26:30;;;;;;;2.80;1.27;;;;;;;7.37;48.70;101647.91;5175630;28;20198;-79
2023/04/05 10:29:10;;;;;;;0.65;0.65;;;;;;;7.38;46.80;101638.34;5159711;28;20237;-79
2023/04/05 10:31:58;;;;;;;0.43;0.43;;;;;;;7.46;48.85;101636.59;5174284;28;20583;-82
2023/04/05 10:34:44;;;;;;;0.40;0.40;;;;;;;7.49;48.89;101636.59;5137526;28;20046;-80
2023/04/05 10:37:37;;;;;;;0.30;0.30;;;;;;;7.62;48.91;101632.25;5139257;28;20118;-80
2023/04/05 10:40:11;;;;;;;2.20;1.52;;;;;;;7.65;49.46;101639.19;5155798;28;20117;-79
2023/04/05 10:42:43;;;;;;;0.73;0.73;;;;;;;7.76;47.02;101634.00;5140550;28;20492;-79
2023/04/05 10:45:18;;;;;;;0.95;0.95;;;;;;;7.74;47.87;101631.38;5143588;28;20104;-79
2023/04/05 10:48:28;;;;;;;0.35;0.35;;;;;;;7.82;46.70;101628.75;5145504;28;20122;-79
2023/04/05 10:51:00;;;;;;;1.33;1.33;;;;;;;7.84;47.13;101630.50;5135550;28;20497;-79
2023/04/05 10:53:33;;;;;;;1.00;1.00;;;;;;;7.84;46.56;101627.03;5139187;28;20106;-80
2023/04/05 10:56:04;;;;;;;0.60;0.60;;;;;;;8.00;47.98;101625.25;5141669;28;20038;-79
2023/04/05 10:58:38;;;;;;;0.63;0.63;;;;;;;7.99;45.89;101619.16;5138876;28;20030;-80
2023/04/05 11:01:09;;;;;;;4.15;1.73;;;;;;;7.95;47.14;101620.03;5168705;28;20038;-79
2023/04/05 11:03:53;;;;;;;0.93;0.93;;;;;;;8.06;47.50;101612.16;5139926;28;20036;-79
2023/04/05 11:06:24;;;;;;;1.83;1.73;;;;;;;8.24;46.99;101610.38;5155135;28;20129;-79
2023/04/05 11:09:19;;;;;;;0.88;0.88;;;;;;;8.18;45.88;101612.13;5157570;28;20122;-79
2023/04/05 11:11:51;;;;;;;1.33;1.30;;;;;;;8.15;46.63;101606.91;5174940;28;20065;-80
2023/04/05 11:14:34;;;;;;;2.63;0.93;;;;;;;8.18;46.52;101606.06;5162939;28;20515;-82
2023/04/05 11:17:23;;;;;;;0.63;0.63;;;;;;;8.18;47.18;101606.91;5157409;28;20660;-81
2023/04/05 11:20:03;;;;;;;1.58;1.48;;;;;;;8.36;44.65;101610.34;5158425;28;20512;-80
2023/04/05 11:22:33;;;;;;;1.48;1.38;;;;;;;8.38;46.02;101600.75;5160637;28;20069;-81
2023/04/05 11:25:05;;;;;;;0.50;0.50;;;;;;;8.48;45.38;101602.47;5160900;28;20482;-80
2023/04/05 11:27:36;;;;;;;1.25;1.15;;;;;;;8.59;45.71;101598.94;5146131;28;20030;-80
2023/04/05 11:30:07;;;;;;;1.13;1.02;;;;;;;8.58;45.09;101594.56;5175566;28;20034;-80
2023/04/05 11:32:44;;;;;;;0.50;0.50;;;;;;;8.65;46.37;101591.94;5160899;28;20026;-79
2023/04/05 11:35:24;;;;;;;0.50;0.50;;;;;;;8.60;44.35;101592.84;5156787;28;20057;-79
2023/04/05 11:38:00;;;;;;;1.05;1.00;;;;;;;8.75;45.60;101587.50;5162654;28;20031;-79
2023/04/05 11:40:36;;;;;;;0.70;0.70;;;;;;;8.84;45.46;101584.00;5153419;28;20102;-82
2023/04/05 11:43:09;;;;;;;1.38;1.27;;;;;;;8.91;45.77;101580.47;5169445;28;20042;-81
2023/04/05 11:45:43;;;;;;;1.45;0.98;;;;;;;8.93;45.58;101575.19;5151535;28;20648;-81
2023/04/05 11:48:14;;;;;;;1.52;1.42;;;;;;;9.20;44.97;101574.13;5167469;28;20052;-84
2023/04/05 11:50:46;;;;;;;1.17;1.08;;;;;;;9.49;45.61;101580.00;5148984;28;20046;-82
2023/04/05 11:53:17;;;;;;;0.77;0.77;;;;;;;9.45;45.43;101569.56;5143243;28;20045;-79
2023/04/05 11:55:50;;;;;;;1.42;0.65;;;;;;;9.80;43.63;101566.59;5160505;28;20042;-80
2023/04/05 11:58:24;;;;;;;0.77;0.77;;;;;;;9.65;44.51;101562.41;5161728;28;20054;-80
2023/04/05 12:00:58;;;;;;;0.90;0.90;;;;;;;9.66;42.59;101561.53;5155946;28;20292;-78
2023/04/05 12:03:29;;;;;;;0.93;0.93;;;;;;;9.68;42.76;101554.50;5156511;28;20401;-77
2023/04/05 12:06:02;;;;;;;0.55;0.55;;;;;;;9.80;42.11;101553.50;5158100;28;20045;-79
2023/04/05 12:08:48;;;;;;;0.73;0.73;;;;;;;9.81;42.43;101547.38;5175127;28;20461;-80
2023/04/05 12:11:23;;;;;;;0.38;0.38;;;;;;;9.84;43.16;101549.97;5127700;28;20042;-79
2023/04/05 12:14:01;;;;;;;1.38;1.27;;;;;;;10.12;40.31;101547.06;5146260;28;20034;-78
2023/04/05 12:16:31;;;;;;;4.03;0.50;;;;;;;10.28;39.32;101542.47;5155305;28;20501;-80
2023/04/05 12:19:02;;;;;;;0.52;0.52;;;;;;;10.34;40.01;101545.00;5158565;28;20114;-79
2023/04/05 12:21:32;;;;;;;1.83;0.68;;;;;;;10.30;39.32;101538.94;5157814;28;20041;-78
2023/04/05 12:24:03;;;;;;;0.50;0.50;;;;;;;10.27;38.52;101539.00;5158872;28;20125;-78
2023/04/05 12:26:34;;;;;;;0.40;0.40;;;;;;;10.36;40.54;101531.00;5140302;28;20035;-79
2023/04/05 12:29:05;;;;;;;8.70;1.63;;;;;;;10.41;38.42;101532.72;5161104;28;20031;-78